Impacts TAF Board INFO
FOR SITUATIONAL AWARENESS. NOT TO BE USED FOR FLIGHT PLANNING PURPOSES.
IDs:

KSFO - San Francisco Intl, CA, US

Issued at 2105 UTC 24 Feb 2018
Updated at 2126 UTC 24 Feb 2018
Potential Impact None Slight Moderate High
Time2056Z 24/22Z 24/23Z 25/00Z 25/01Z 25/02Z 25/03Z 25/04Z 25/05Z 25/06Z 25/07Z 25/08Z 25/09Z 25/10Z>>
Type OBS PRVL PRVL PRVL PRVL PRVL PRVL PRVL PRVL PRVL PRVL PRVL PRVL PRVL
VIS 10 >6 >6 >6 >6 >6 >6 >6 >6 >6 >6 >6 >6 >6
CIG 200 200 200 -- -- -- -- -- -- -- -- -- -- --
Cover BKN BKN BKN SCT SCT SCT SCT SCT SCT SCT SCT SCT SCT FEW
FltCat VFR VFR VFR VFR VFR VFR VFR VFR VFR VFR VFR VFR VFR VFR
WX -- -- -- -- -- -- -- -- -- -- -- -- -- --
WDir 30 280 280 280 280 280 280 280 280 280 280 280 280 290
WSpd 5 12 12 20 20 20 20 14 14 14 14 14 14 8
WGst -- -- -- 28 28 28 28 -- -- -- -- -- -- --

Raw TAF
KSFO 242105Z 2421/2524 03005KT P6SM FEW030 BKN200
  FM242200 28012KT P6SM FEW030 BKN200
  FM250000 28020G28KT P6SM FEW020 SCT100
  FM250400 28014KT P6SM SCT030
  FM251000 29008KT P6SM FEW020
  FM252100 26015KT P6SM FEW025


Raw METAR
KSFO 242056Z 03005KT 10SM FEW030 BKN200 13/04 A3038 RMK AO2 SLP287 T01330044 58016 $
KSFO 241956Z 07007KT 10SM FEW028 SCT200 11/02 A3041 RMK AO2 SLP298 T01110017 $
KSFO 241856Z 02009KT 10SM FEW021 SCT200 12/01 A3043 RMK AO2 SLP303 T01170006 $

METAR Board
Radar Display
Forecast Discussion

FOR SITUATIONAL AWARENESS. NOT TO BE USED FOR FLIGHT PLANNING PURPOSES.